Airfield :
LOGIN :

Register | Disclaimer

   EN    FR    IT 

 










Legend :    VFR   Marginal VFR   IFR   Intensive IFR   Very Intensive IFR
Visi :
Ceiling :
>= 8 km
>= 3000ft
5 to 8 km
1000 to 3000 ft
1500m to 5 km
500 to 1000 ft
800 to 1500m
200 to 500 ft
< 800m
< 200 ft
Symbols :   Thunderstorms  Fog  Heavy snow  Heavy precipitations  Wind > 20 kt
SIGMETs :     Misc.  Thunderstorms  Icing  Turbulence  Mountain Waves  Volcanic Ashes







- Airport Elevation : 141 ft
- IATA code : SKS


EKSP - Srydstrup Vojens

CURRENT METAR :
  • 270021Z 28009KT 9999 FEW008 SCT011 BKN065 06/05 Q1026

EXPIRED METARs :
  • 262350Z 28010KT 9999 FEW008 SCT013 BKN020 06/05 Q1027
  • 262320Z 28010KT 9999 FEW008 SCT013 BKN020 06/05 Q1026
  • 262251Z 28007KT 9999 FEW008 SCT013 BKN020 06/05 Q1026
  • 262220Z 27008KT 9999 FEW008 SCT012 BKN027 06/05 Q1026
  • 262150Z 29009KT 9999 FEW011 BKN018 06/05 Q1026

TAF TAF EKSP
Valid from the 27 at 00:00 until the 28 at 00:00 UTC


262320Z 2700/2724 29008KT 9999 SCT010 BKN020
TEMPO 2700/2704 4000 BR -RADZ BKN006
BECMG 2704/2706 2500 BR -RADZ BKN004
TEMPO 2706/2712 0300 FG VV001
TEMPO 2712/2717 7000 NSW BKN008
BECMG 2717/2719 4000 BR -DZ BKN006
TEMPO 2719/2724 1200 BR BKN004
No reported NOTAMs for that airfield.



MET'MAP, your aeronautical weather chart ! - Copyright ORBIFLY December 2007 - Disclaimer

ORBIFLY MET'MAP TEAM :

Programming & Development : Alexandra Zaïnal
Concept & Development : Baudouin d'Aumeries
Co-Development & Prog : Marc-Olivier Méhu
Technical & hardware support : Manuel Goepfert

Contact : metmap@orbifly.com




SOURCES & CREDITS :

   NOAA